createdAt,value
2023-03-30T00:01:58.992Z,1.93
2023-03-30T00:04:27.419Z,1.94
2023-03-30T00:06:55.792Z,1.94
2023-03-30T00:09:24.376Z,1.92
2023-03-30T00:11:52.622Z,1.91
2023-03-30T00:14:22.810Z,1.88
2023-03-30T00:16:51.125Z,1.88
2023-03-30T00:19:19.323Z,1.89
2023-03-30T00:21:48.097Z,1.92
2023-03-30T00:24:16.464Z,1.94
2023-03-30T00:26:44.648Z,1.95
2023-03-30T00:29:12.794Z,1.96
2023-03-30T00:31:41.171Z,1.96
2023-03-30T00:34:10.002Z,1.97
2023-03-30T00:36:38.296Z,1.98
2023-03-30T00:39:08.447Z,2.02
2023-03-30T00:41:37.029Z,2.05
2023-03-30T00:44:46.733Z,2.10
2023-03-30T00:47:16.945Z,2.15
2023-03-30T00:49:45.569Z,2.23
2023-03-30T00:52:19.342Z,2.30
2023-03-30T00:54:47.928Z,2.37
2023-03-30T00:57:16.231Z,2.46
2023-03-30T00:59:45.253Z,2.54
2023-03-30T01:02:14.403Z,2.60
2023-03-30T01:04:44.600Z,2.65
2023-03-30T01:07:13.591Z,2.71
2023-03-30T01:09:42.874Z,2.77
2023-03-30T01:12:11.262Z,2.83
2023-03-30T01:14:40.161Z,2.89
2023-03-30T01:17:17.289Z,2.96
2023-03-30T01:19:54.802Z,3.01
2023-03-30T01:22:52.793Z,3.01
2023-03-30T01:25:36.877Z,2.96
2023-03-30T01:28:11.250Z,2.88
2023-03-30T01:30:54.383Z,2.82
2023-03-30T01:33:56.759Z,2.76
2023-03-30T01:36:45.746Z,2.70
2023-03-30T01:39:27.313Z,2.66
2023-03-30T01:42:09.377Z,2.63
2023-03-30T01:44:40.945Z,2.59
2023-03-30T01:47:09.134Z,2.57
2023-03-30T01:49:44.414Z,2.55
2023-03-30T01:52:25.532Z,2.54
2023-03-30T01:55:03.183Z,2.53
2023-03-30T01:57:51.994Z,2.53
2023-03-30T02:00:23.903Z,2.54
2023-03-30T02:02:55.791Z,2.54
2023-03-30T02:05:27.599Z,2.54
2023-03-30T02:08:12.401Z,2.55
2023-03-30T02:10:43.898Z,2.56
2023-03-30T02:13:15.413Z,2.57
2023-03-30T02:15:48.297Z,2.58
2023-03-30T02:18:16.631Z,2.58
2023-03-30T02:20:44.986Z,2.59
2023-03-30T02:23:13.563Z,2.61
2023-03-30T02:25:42.233Z,2.62
2023-03-30T02:28:10.901Z,2.64
2023-03-30T02:30:44.353Z,2.67
2023-03-30T02:33:28.262Z,2.70
2023-03-30T02:36:11.953Z,2.73
2023-03-30T02:42:16.744Z,2.79
2023-03-30T02:45:03.432Z,2.83
2023-03-30T02:47:44.516Z,2.86
2023-03-30T02:50:19.130Z,2.88
2023-03-30T02:52:59.249Z,2.90
2023-03-30T02:55:46.123Z,2.92
2023-03-30T02:58:32.014Z,2.93
2023-03-30T03:01:44.581Z,2.95
2023-03-30T03:04:18.859Z,2.96
2023-03-30T03:07:05.667Z,2.96
2023-03-30T03:09:33.973Z,2.96
2023-03-30T03:12:03.006Z,2.96
2023-03-30T03:14:36.655Z,2.96
2023-03-30T03:17:05.984Z,2.97
2023-03-30T03:19:38.664Z,2.97
2023-03-30T03:22:06.996Z,2.98
2023-03-30T03:24:39.263Z,2.98
2023-03-30T03:27:11.784Z,2.97
2023-03-30T03:29:53.750Z,2.96
2023-03-30T03:32:22.094Z,2.95
2023-03-30T03:34:50.572Z,2.95
2023-03-30T03:37:19.560Z,2.94
2023-03-30T03:39:47.834Z,2.92
2023-03-30T03:42:16.143Z,2.90
2023-03-30T03:45:00.581Z,2.87
2023-03-30T03:47:29.060Z,2.85
2023-03-30T03:49:57.283Z,2.82
2023-03-30T03:52:25.870Z,2.80
2023-03-30T03:54:54.054Z,2.79
2023-03-30T03:57:23.994Z,2.78
2023-03-30T03:59:53.900Z,2.78
2023-03-30T04:02:24.054Z,2.78
2023-03-30T04:04:54.643Z,2.80
2023-03-30T04:07:25.596Z,2.82
2023-03-30T04:09:53.834Z,2.83
2023-03-30T04:12:38.977Z,2.86
2023-03-30T04:15:21.755Z,2.91
2023-03-30T04:18:08.876Z,2.93
2023-03-30T04:21:07.624Z,2.96
2023-03-30T04:24:01.467Z,3.00
2023-03-30T04:26:49.154Z,3.05
2023-03-30T04:29:41.693Z,3.09
2023-03-30T04:32:39.717Z,3.12
2023-03-30T04:35:32.917Z,3.15
2023-03-30T04:38:24.272Z,3.18
2023-03-30T04:41:26.173Z,3.21
2023-03-30T04:44:24.634Z,3.23
2023-03-30T04:47:06.312Z,3.25
2023-03-30T04:50:01.799Z,3.27
2023-03-30T04:52:56.357Z,3.28
2023-03-30T04:55:56.669Z,3.31
2023-03-30T04:58:33.677Z,3.33
2023-03-30T05:01:22.640Z,3.35
2023-03-30T05:04:20.402Z,3.39
2023-03-30T05:07:07.372Z,3.41
2023-03-30T05:09:59.047Z,3.45
2023-03-30T05:12:45.629Z,3.51
2023-03-30T05:15:32.511Z,3.56
2023-03-30T05:18:18.479Z,3.62
2023-03-30T05:21:21.437Z,3.70
2023-03-30T05:24:13.096Z,3.78
2023-03-30T05:27:17.181Z,3.89
2023-03-30T05:30:02.121Z,4.00
2023-03-30T05:32:51.424Z,4.13
2023-03-30T05:35:26.340Z,4.26
2023-03-30T05:38:24.072Z,4.40
2023-03-30T05:41:24.962Z,4.57
2023-03-30T05:44:21.933Z,4.79
2023-03-30T05:47:09.566Z,5.06
2023-03-30T05:50:00.764Z,5.38
2023-03-30T05:52:57.584Z,5.72
2023-03-30T05:56:04.780Z,6.01
2023-03-30T05:58:56.121Z,6.22
2023-03-30T06:01:59.547Z,6.40
2023-03-30T06:04:28.675Z,6.54
2023-03-30T06:06:57.022Z,6.65
2023-03-30T06:09:26.435Z,6.76
2023-03-30T06:11:55.286Z,6.88
2023-03-30T06:14:26.367Z,7.01
2023-03-30T06:17:18.703Z,7.17
2023-03-30T06:19:46.985Z,7.30
2023-03-30T06:22:15.618Z,7.42
2023-03-30T06:25:08.547Z,7.53
2023-03-30T06:27:37.517Z,7.61
2023-03-30T06:30:12.783Z,7.69
2023-03-30T06:32:42.469Z,7.79
2023-03-30T06:35:26.844Z,7.92
2023-03-30T06:37:55.411Z,8.05
2023-03-30T06:40:24.560Z,8.17
2023-03-30T06:42:57.117Z,8.28
2023-03-30T06:45:53.185Z,8.38
2023-03-30T06:48:26.723Z,8.45
2023-03-30T06:51:27.770Z,8.52
2023-03-30T06:53:56.895Z,8.56
2023-03-30T06:56:26.685Z,8.62
2023-03-30T06:59:07.197Z,8.68
2023-03-30T07:01:44.302Z,8.78
2023-03-30T07:04:42.060Z,8.92
2023-03-30T07:07:26.778Z,9.11
2023-03-30T07:09:55.462Z,9.28
2023-03-30T07:12:24.416Z,9.43
2023-03-30T07:14:54.349Z,9.58
2023-03-30T07:17:26.785Z,9.71
2023-03-30T07:19:55.844Z,9.81
2023-03-30T07:22:24.311Z,9.89
2023-03-30T07:24:53.321Z,9.97
2023-03-30T07:27:25.435Z,10.03
2023-03-30T07:29:55.663Z,10.08
2023-03-30T07:32:24.202Z,10.12
2023-03-30T07:34:52.646Z,10.15
2023-03-30T07:37:21.103Z,10.21
2023-03-30T07:39:50.079Z,10.30
2023-03-30T07:42:18.941Z,10.38
2023-03-30T07:44:47.608Z,10.47
2023-03-30T07:47:18.076Z,10.58
2023-03-30T07:49:46.503Z,10.70
2023-03-30T07:52:14.855Z,10.85
2023-03-30T07:55:04.408Z,11.04
2023-03-30T07:57:39.632Z,11.24
2023-03-30T08:00:14.109Z,11.41
2023-03-30T08:03:05.774Z,11.63
2023-03-30T08:05:34.274Z,11.82
2023-03-30T08:08:22.138Z,12.03
2023-03-30T08:10:51.079Z,12.23
2023-03-30T08:13:21.824Z,12.48
2023-03-30T08:15:52.761Z,12.81
2023-03-30T08:18:21.671Z,13.11
2023-03-30T08:20:52.606Z,13.23
2023-03-30T08:23:21.636Z,13.25
2023-03-30T08:25:52.740Z,13.33
2023-03-30T08:28:21.621Z,13.51
2023-03-30T08:30:50.005Z,13.78
2023-03-30T08:33:21.108Z,13.94
2023-03-30T08:35:49.929Z,13.99
2023-03-30T08:38:19.104Z,14.07
2023-03-30T08:40:49.307Z,14.27
2023-03-30T08:43:35.987Z,14.37
2023-03-30T08:46:04.468Z,14.32
2023-03-30T08:48:38.033Z,14.35
2023-03-30T08:51:23.421Z,14.47
2023-03-30T08:53:59.468Z,14.66
2023-03-30T08:56:35.236Z,14.77
2023-03-30T08:59:25.416Z,14.80
2023-03-30T09:02:12.063Z,14.88
2023-03-30T09:05:14.512Z,15.08
2023-03-30T09:07:52.246Z,15.31
2023-03-30T09:10:23.202Z,15.50
2023-03-30T09:12:55.522Z,15.66
2023-03-30T09:15:36.837Z,15.89
2023-03-30T09:18:15.688Z,16.03
2023-03-30T09:20:46.569Z,16.07
2023-03-30T09:23:17.742Z,15.97
2023-03-30T09:26:10.093Z,15.67
2023-03-30T09:29:00.315Z,15.29
2023-03-30T09:31:33.533Z,14.97
2023-03-30T09:34:12.917Z,14.75
2023-03-30T09:37:04.509Z,14.56
2023-03-30T09:39:36.502Z,14.41
2023-03-30T09:42:13.950Z,14.32
2023-03-30T09:44:51.569Z,14.22
2023-03-30T09:47:27.530Z,14.14
2023-03-30T09:50:01.705Z,14.14
2023-03-30T09:52:37.186Z,14.20
2023-03-30T09:55:20.830Z,14.29
2023-03-30T09:57:51.314Z,14.48
2023-03-30T10:00:29.453Z,14.83
2023-03-30T10:03:06.771Z,15.24
2023-03-30T10:05:36.931Z,15.65
2023-03-30T10:08:21.774Z,15.98
2023-03-30T10:10:58.473Z,16.23
2023-03-30T10:13:39.380Z,16.21
2023-03-30T10:16:12.906Z,15.97
2023-03-30T10:18:44.536Z,15.74
2023-03-30T10:21:28.381Z,15.56
2023-03-30T10:24:09.266Z,15.37
2023-03-30T10:26:38.338Z,15.15
2023-03-30T10:29:11.136Z,14.93
2023-03-30T10:31:43.474Z,14.75
2023-03-30T10:34:28.754Z,14.61
2023-03-30T10:36:57.918Z,14.55
2023-03-30T10:39:32.474Z,14.68
2023-03-30T10:42:04.342Z,14.94
2023-03-30T10:44:36.200Z,15.11
2023-03-30T10:47:28.914Z,15.10
2023-03-30T10:49:57.499Z,15.08
2023-03-30T10:52:59.136Z,15.02
2023-03-30T10:56:03.133Z,14.81
2023-03-30T10:58:41.695Z,14.66
2023-03-30T11:01:29.605Z,14.70
2023-03-30T11:04:16.045Z,14.71
2023-03-30T11:06:46.026Z,14.59
2023-03-30T11:09:21.496Z,14.41
2023-03-30T11:11:56.438Z,14.31
2023-03-30T11:15:00.640Z,14.20
2023-03-30T11:17:38.265Z,14.06
2023-03-30T11:20:39.918Z,13.92
2023-03-30T11:23:28.032Z,13.70
2023-03-30T11:26:02.520Z,13.49
2023-03-30T11:28:43.526Z,13.34
2023-03-30T11:31:26.613Z,13.23
2023-03-30T11:34:12.561Z,13.13
2023-03-30T11:37:02.533Z,13.02
2023-03-30T11:39:34.917Z,12.93
2023-03-30T11:42:09.299Z,12.89
2023-03-30T11:44:37.936Z,12.92
2023-03-30T11:47:18.234Z,13.00
2023-03-30T11:49:58.426Z,13.15
2023-03-30T11:52:36.429Z,13.33
2023-03-30T11:55:30.429Z,13.49
2023-03-30T11:58:23.169Z,13.61
2023-03-30T12:01:03.894Z,13.71
2023-03-30T12:03:40.530Z,13.76
2023-03-30T12:06:29.824Z,13.79
2023-03-30T12:09:24.998Z,13.83
2023-03-30T12:12:34.627Z,13.86
2023-03-30T12:15:27.215Z,13.93
2023-03-30T12:18:07.046Z,14.04
2023-03-30T12:21:07.606Z,14.18
2023-03-30T12:23:47.832Z,14.27
2023-03-30T12:26:24.424Z,14.32
2023-03-30T12:31:51.406Z,14.32
2023-03-30T12:34:21.814Z,14.30
2023-03-30T12:37:16.611Z,14.33
2023-03-30T12:39:51.204Z,14.40
2023-03-30T12:42:35.658Z,14.44
2023-03-30T12:45:12.705Z,14.50
2023-03-30T12:48:14.466Z,14.58
2023-03-30T12:50:54.607Z,14.63
2023-03-30T12:53:44.176Z,14.63
2023-03-30T12:56:36.917Z,14.55
2023-03-30T12:59:08.371Z,14.48
2023-03-30T13:01:56.130Z,14.42
2023-03-30T13:04:29.652Z,14.39
2023-03-30T13:07:15.973Z,14.40
2023-03-30T13:10:06.556Z,14.38
2023-03-30T13:12:38.116Z,14.37
2023-03-30T13:15:41.498Z,14.35
2023-03-30T13:18:09.814Z,14.26
2023-03-30T13:21:05.846Z,14.15
2023-03-30T13:23:37.878Z,14.01
2023-03-30T13:26:28.181Z,13.90
2023-03-30T13:29:15.874Z,13.81
2023-03-30T13:31:53.941Z,13.74
2023-03-30T13:34:28.104Z,13.68
2023-03-30T13:37:21.881Z,13.63
2023-03-30T13:40:00.301Z,13.60
2023-03-30T13:42:46.797Z,13.61
2023-03-30T13:45:30.437Z,13.62
2023-03-30T13:48:22.010Z,13.62
2023-03-30T13:50:57.202Z,13.61
2023-03-30T13:53:28.989Z,13.61
2023-03-30T13:55:57.592Z,13.62
2023-03-30T13:58:33.397Z,13.68
2023-03-30T14:01:04.774Z,13.77
2023-03-30T14:03:33.203Z,13.88
2023-03-30T14:06:23.054Z,14.00
2023-03-30T14:09:18.762Z,14.10
2023-03-30T14:11:58.919Z,14.21
2023-03-30T14:14:34.743Z,14.30
2023-03-30T14:17:19.840Z,14.35
2023-03-30T14:19:51.293Z,14.36
2023-03-30T14:22:24.760Z,14.38
2023-03-30T14:25:01.578Z,14.39
2023-03-30T14:27:36.316Z,14.37
2023-03-30T14:30:29.511Z,14.35
2023-03-30T14:33:25.763Z,14.33
2023-03-30T14:35:57.232Z,14.30
2023-03-30T14:38:39.442Z,14.24
2023-03-30T14:41:14.587Z,14.14
2023-03-30T14:43:51.106Z,14.08
2023-03-30T14:46:19.798Z,14.02
2023-03-30T14:48:50.673Z,13.95
2023-03-30T14:51:40.475Z,13.87
2023-03-30T14:54:13.948Z,13.78
2023-03-30T14:56:46.606Z,13.69
2023-03-30T14:59:18.369Z,13.62
2023-03-30T15:01:46.976Z,13.55
2023-03-30T15:04:17.437Z,13.49
2023-03-30T15:06:47.390Z,13.43
2023-03-30T15:09:18.847Z,13.37
2023-03-30T15:11:52.568Z,13.32
2023-03-30T15:14:22.745Z,13.26
2023-03-30T15:16:53.880Z,13.20
2023-03-30T15:19:42.700Z,13.15
2023-03-30T15:22:20.901Z,13.11
2023-03-30T15:24:50.125Z,13.08
2023-03-30T15:27:18.572Z,13.06
2023-03-30T15:29:47.370Z,13.05
2023-03-30T15:32:15.636Z,13.03
2023-03-30T15:35:19.359Z,13.03
2023-03-30T15:38:13.412Z,13.02
2023-03-30T15:40:50.261Z,13.01
2023-03-30T15:43:18.501Z,13.01
2023-03-30T15:45:56.135Z,13.01
2023-03-30T15:48:42.167Z,13.00
2023-03-30T15:51:15.672Z,12.98
2023-03-30T15:53:52.611Z,12.95
2023-03-30T15:56:41.151Z,12.92
2023-03-30T15:59:19.061Z,12.91
2023-03-30T16:01:47.304Z,12.91
2023-03-30T16:04:17.583Z,12.92
2023-03-30T16:06:47.493Z,12.91
2023-03-30T16:09:17.101Z,12.90
2023-03-30T16:11:46.704Z,12.89
2023-03-30T16:14:20.605Z,12.89
2023-03-30T16:16:49.211Z,12.87
2023-03-30T16:19:20.241Z,12.84
2023-03-30T16:21:51.549Z,12.81
2023-03-30T16:24:19.765Z,12.78
2023-03-30T16:26:48.014Z,12.72
2023-03-30T16:29:22.051Z,12.68
2023-03-30T16:31:51.964Z,12.63
2023-03-30T16:34:21.991Z,12.57
2023-03-30T16:36:50.949Z,12.51
2023-03-30T16:39:25.207Z,12.44
2023-03-30T16:41:54.499Z,12.39
2023-03-30T16:44:24.243Z,12.33
2023-03-30T16:46:53.097Z,12.27
2023-03-30T16:49:26.339Z,12.23
2023-03-30T16:51:57.909Z,12.19
2023-03-30T16:56:57.928Z,12.12
2023-03-30T16:59:29.228Z,12.10
2023-03-30T17:01:58.234Z,12.07
2023-03-30T17:04:26.862Z,12.03
2023-03-30T17:06:55.521Z,12.00
2023-03-30T17:09:23.836Z,11.98
2023-03-30T17:11:52.256Z,11.96
2023-03-30T17:14:20.929Z,11.93
2023-03-30T17:16:49.369Z,11.90
2023-03-30T17:19:17.682Z,11.86
2023-03-30T17:21:46.236Z,11.84
2023-03-30T17:24:16.524Z,11.81
2023-03-30T17:26:44.858Z,11.77
2023-03-30T17:29:13.218Z,11.74
2023-03-30T17:31:45.829Z,11.71
2023-03-30T17:34:14.947Z,11.68
2023-03-30T17:36:43.244Z,11.65
2023-03-30T17:39:14.308Z,11.62
2023-03-30T17:41:42.678Z,11.60
2023-03-30T17:44:10.820Z,11.57
2023-03-30T17:46:39.515Z,11.53
2023-03-30T17:49:16.341Z,11.50
2023-03-30T17:51:44.821Z,11.46
2023-03-30T17:54:13.230Z,11.42
2023-03-30T17:56:41.481Z,11.36
2023-03-30T17:59:13.728Z,11.30
2023-03-30T18:01:42.105Z,11.24
2023-03-30T18:04:10.532Z,11.18
2023-03-30T18:06:38.854Z,11.12
2023-03-30T18:09:15.964Z,11.06
2023-03-30T18:11:44.435Z,11.00
2023-03-30T18:14:12.796Z,10.95
2023-03-30T18:16:43.604Z,10.88
2023-03-30T18:19:12.425Z,10.81
2023-03-30T18:21:40.831Z,10.74
2023-03-30T18:24:09.028Z,10.67
2023-03-30T18:26:39.669Z,10.61
2023-03-30T18:29:20.323Z,10.53
2023-03-30T18:31:49.269Z,10.46
2023-03-30T18:34:19.647Z,10.40
2023-03-30T18:36:47.980Z,10.36
2023-03-30T18:39:21.497Z,10.29
2023-03-30T18:41:50.058Z,10.22
2023-03-30T18:44:29.642Z,10.18
2023-03-30T18:47:01.651Z,10.12
2023-03-30T18:49:32.878Z,10.09
2023-03-30T18:52:01.208Z,10.07
2023-03-30T18:54:29.396Z,10.05
2023-03-30T18:56:57.783Z,10.05
2023-03-30T18:59:26.263Z,10.04
2023-03-30T19:01:54.495Z,10.02
2023-03-30T19:04:22.661Z,10.00
2023-03-30T19:06:53.108Z,9.99
2023-03-30T19:09:29.781Z,9.97
2023-03-30T19:12:05.098Z,9.94
2023-03-30T19:14:33.353Z,9.94
2023-03-30T19:17:01.623Z,9.93
2023-03-30T19:19:30.100Z,9.92
2023-03-30T19:21:59.483Z,9.93
2023-03-30T19:24:27.653Z,9.93
2023-03-30T19:26:55.860Z,9.94
2023-03-30T19:29:24.213Z,9.94
2023-03-30T19:31:55.082Z,9.91
2023-03-30T19:34:23.416Z,9.87
2023-03-30T19:36:51.634Z,9.84
2023-03-30T19:39:19.980Z,9.79
2023-03-30T19:41:48.255Z,9.75
2023-03-30T19:44:16.525Z,9.69
2023-03-30T19:46:44.820Z,9.62
2023-03-30T19:49:13.159Z,9.57
2023-03-30T19:51:41.536Z,9.54
2023-03-30T19:54:10.859Z,9.51
2023-03-30T19:56:39.214Z,9.48
2023-03-30T19:59:08.239Z,9.46
2023-03-30T20:01:36.499Z,9.44
2023-03-30T20:04:05.812Z,9.43
2023-03-30T20:06:35.973Z,9.43
2023-03-30T20:09:04.891Z,9.44
2023-03-30T20:11:33.245Z,9.44
2023-03-30T20:14:03.563Z,9.45
2023-03-30T20:16:38.099Z,9.42
2023-03-30T20:19:15.876Z,9.39
2023-03-30T20:21:47.542Z,9.36
2023-03-30T20:24:16.274Z,9.33
2023-03-30T20:26:44.853Z,9.29
2023-03-30T20:29:13.228Z,9.26
2023-03-30T20:31:45.557Z,9.25
2023-03-30T20:34:15.506Z,9.22
2023-03-30T20:36:46.520Z,9.21
2023-03-30T20:39:14.785Z,9.19
2023-03-30T20:41:43.031Z,9.18
2023-03-30T20:44:18.285Z,9.16
2023-03-30T20:46:47.544Z,9.14
2023-03-30T20:49:16.102Z,9.12
2023-03-30T20:51:45.181Z,9.12
2023-03-30T20:54:13.443Z,9.12
2023-03-30T20:56:43.229Z,9.12
2023-03-30T20:59:11.769Z,9.12
2023-03-30T21:01:41.029Z,9.12
2023-03-30T21:04:09.865Z,9.11
2023-03-30T21:06:38.277Z,9.09
2023-03-30T21:09:07.181Z,9.10
2023-03-30T21:11:38.995Z,9.10
2023-03-30T21:14:09.330Z,9.10
2023-03-30T21:16:38.212Z,9.10
2023-03-30T21:19:08.351Z,9.10
2023-03-30T21:21:37.863Z,9.11
2023-03-30T21:24:08.884Z,9.10
2023-03-30T21:26:37.941Z,9.10
2023-03-30T21:29:06.299Z,9.11
2023-03-30T21:31:34.527Z,9.13
2023-03-30T21:34:02.950Z,9.16
2023-03-30T21:36:31.304Z,9.17
2023-03-30T21:39:00.906Z,9.19
2023-03-30T21:41:30.300Z,9.21
2023-03-30T21:43:58.634Z,9.21
2023-03-30T21:46:27.230Z,9.21
2023-03-30T21:48:55.651Z,9.21
2023-03-30T21:51:27.438Z,9.20
2023-03-30T21:53:56.733Z,9.21
2023-03-30T21:56:29.003Z,9.22
2023-03-30T21:58:58.546Z,9.23
2023-03-30T22:01:27.130Z,9.26
2023-03-30T22:03:56.412Z,9.28
2023-03-30T22:06:24.876Z,9.31
2023-03-30T22:08:53.234Z,9.34
2023-03-30T22:11:24.073Z,9.37
2023-03-30T22:13:55.110Z,9.39
2023-03-30T22:16:28.836Z,9.40
2023-03-30T22:19:01.770Z,9.41
2023-03-30T22:21:34.622Z,9.43
2023-03-30T22:24:05.527Z,9.44
2023-03-30T22:26:35.601Z,9.45
2023-03-30T22:29:05.115Z,9.47
2023-03-30T22:31:33.596Z,9.47
2023-03-30T22:34:02.951Z,9.47
2023-03-30T22:36:31.285Z,9.48
2023-03-30T22:39:01.261Z,9.48
2023-03-30T22:41:30.153Z,9.48
2023-03-30T22:43:58.674Z,9.49
2023-03-30T22:46:27.403Z,9.50
2023-03-30T22:48:56.329Z,9.50
2023-03-30T22:51:28.372Z,9.51
2023-03-30T22:53:58.756Z,9.51
2023-03-30T22:56:29.222Z,9.51
2023-03-30T22:58:59.465Z,9.52
2023-03-30T23:01:32.083Z,9.53
2023-03-30T23:04:01.811Z,9.53
2023-03-30T23:06:31.289Z,9.53
2023-03-30T23:09:02.574Z,9.54
2023-03-30T23:11:32.225Z,9.55
2023-03-30T23:14:06.279Z,9.55
2023-03-30T23:16:35.988Z,9.54
2023-03-30T23:19:05.244Z,9.53
2023-03-30T23:21:37.000Z,9.52
2023-03-30T23:24:08.073Z,9.51
2023-03-30T23:26:36.511Z,9.51
2023-03-30T23:29:05.201Z,9.51
2023-03-30T23:31:34.655Z,9.51
2023-03-30T23:34:03.187Z,9.52
2023-03-30T23:36:31.430Z,9.52
2023-03-30T23:38:59.672Z,9.53
2023-03-30T23:41:29.114Z,9.54
2023-03-30T23:43:57.339Z,9.56
2023-03-30T23:46:25.706Z,9.58
2023-03-30T23:48:53.965Z,9.60
2023-03-30T23:51:22.146Z,9.62
2023-03-30T23:53:54.440Z,9.62
2023-03-30T23:56:25.941Z,9.63
2023-03-30T23:58:54.272Z,9.63
